Terminal Aerodrome Forecast
Issued by NWS Wilmington, NC

Home | Current Version | Previous Version | Text Only | Print | Product List | Glossary On
Versions: 1 2 3 4 5 6 7 8 9 10 11 12 13 14 15 16 17 18 19
000
FTUS42 KILM 281100
TAFFLO
TAF
KFLO 281124Z 2812/2912 24010KT P6SM FEW070 SCT150
     FM281600 27011G18KT P6SM SCT050 SCT200
     FM281800 28012G20KT P6SM VCTS SCT040CB BKN200
      TEMPO 2818/2822 VRB20G40KT 1SM TSRA BKN030CB
     FM290100 31008KT P6SM BKN050 BKN250
     FM290600 01007KT P6SM SCT050=

USA.gov is the U.S. government's official web portal to all federal, state and local government web resources and services.